Time;durP1;ratioP1;P1;durP2;ratioP2;P2;SDS_P1;SDS_P2;PMS_P1;PMS_P2;Temp;Humidity;BMP_temperature;BMP_pressure;BME280_temperature;BME280_humidity;BME280_pressure;Samples;Min_cycle;Max_cycle;Signal;HPM_P1;HPM_P2
2023/10/15 00:00:50;;;;;;;9.87;2.50;;;7.90;99.90;;;;;;5050054;28;20207;-79
2023/10/15 00:03:16;;;;;;;11.53;2.80;;;8.00;99.90;;;;;;5046856;28;20582;-79
2023/10/15 00:05:44;;;;;;;11.37;2.63;;;8.00;99.90;;;;;;5044124;28;20291;-79
2023/10/15 00:08:11;;;;;;;9.83;2.67;;;7.90;99.90;;;;;;5047094;28;20658;-79
2023/10/15 00:10:38;;;;;;;12.30;2.37;;;7.90;99.90;;;;;;5047098;28;20574;-78
2023/10/15 00:13:05;;;;;;;11.40;2.17;;;8.00;99.90;;;;;;5056912;28;20580;-79
2023/10/15 00:15:33;;;;;;;5.80;1.97;;;8.00;99.90;;;;;;5045300;28;20227;-79
2023/10/15 00:18:02;;;;;;;9.47;2.17;;;8.10;99.90;;;;;;5046928;28;20569;-79
2023/10/15 00:20:34;;;;;;;8.23;1.97;;;8.00;99.90;;;;;;5047624;28;20227;-80
2023/10/15 00:23:04;;;;;;;8.53;2.00;;;8.00;99.90;;;;;;5043752;28;20258;-80
2023/10/15 00:25:35;;;;;;;7.33;2.20;;;8.00;99.90;;;;;;5047608;28;20204;-79
2023/10/15 00:28:05;;;;;;;9.67;2.70;;;8.20;99.90;;;;;;5050661;28;20207;-79
2023/10/15 00:30:34;;;;;;;10.37;2.10;;;8.10;99.90;;;;;;5050996;28;20257;-79
2023/10/15 00:33:06;;;;;;;14.53;2.77;;;8.10;99.90;;;;;;5041241;28;20212;-79
2023/10/15 00:35:34;;;;;;;11.30;2.73;;;8.00;99.90;;;;;;5047496;28;20239;-79
2023/10/15 00:38:07;;;;;;;14.63;2.50;;;8.00;99.90;;;;;;5056531;28;20211;-79
2023/10/15 00:40:37;;;;;;;10.47;2.13;;;8.00;99.90;;;;;;5050536;28;20199;-79
2023/10/15 00:43:04;;;;;;;10.30;2.10;;;8.10;99.90;;;;;;5052102;28;20234;-79
2023/10/15 00:45:43;;;;;;;6.80;2.03;;;8.10;99.90;;;;;;5053141;28;20208;-79
2023/10/15 00:48:11;;;;;;;14.50;3.03;;;8.20;99.90;;;;;;5047592;28;20238;-79
2023/10/15 00:50:40;;;;;;;8.87;2.37;;;8.20;99.90;;;;;;5042572;28;20639;-78
2023/10/15 00:53:21;;;;;;;7.87;2.00;;;8.20;99.90;;;;;;5048245;28;20638;-79
2023/10/15 00:55:49;;;;;;;9.50;2.10;;;8.20;99.90;;;;;;5047732;28;20199;-79
2023/10/15 00:58:22;;;;;;;17.07;2.13;;;8.20;99.90;;;;;;5052415;28;20199;-79
2023/10/15 01:00:53;;;;;;;11.07;2.23;;;8.10;99.90;;;;;;5037884;28;20679;-79
2023/10/15 01:03:30;;;;;;;10.90;2.50;;;8.10;99.90;;;;;;5055472;28;20237;-79
2023/10/15 01:05:59;;;;;;;7.80;2.00;;;8.20;99.90;;;;;;5044927;28;20215;-79
2023/10/15 01:08:31;;;;;;;14.97;2.40;;;8.20;99.90;;;;;;5053174;28;20233;-79
2023/10/15 01:11:11;;;;;;;10.53;2.87;;;8.20;99.90;;;;;;5043297;28;20640;-79
2023/10/15 01:13:38;;;;;;;14.23;2.30;;;8.20;99.90;;;;;;5045699;28;20646;-79
2023/10/15 01:16:08;;;;;;;6.50;1.90;;;8.20;99.90;;;;;;5036041;28;20212;-79
2023/10/15 01:18:36;;;;;;;10.13;2.60;;;8.20;99.90;;;;;;5044051;28;20222;-79
2023/10/15 01:21:04;;;;;;;6.17;2.17;;;8.10;99.90;;;;;;5043145;28;20206;-78
2023/10/15 01:23:44;;;;;;;12.53;2.10;;;8.10;99.90;;;;;;5043672;28;20771;-79
2023/10/15 01:26:18;;;;;;;11.43;3.10;;;8.20;99.90;;;;;;5045913;28;20202;-78
2023/10/15 01:28:45;;;;;;;13.67;2.17;;;8.10;99.90;;;;;;5045711;28;20681;-79
2023/10/15 01:31:15;;;;;;;13.40;2.13;;;8.20;99.90;;;;;;5051532;28;20306;-78
2023/10/15 01:33:47;;;;;;;10.80;2.40;;;8.20;99.90;;;;;;5044791;28;20670;-79
2023/10/15 01:36:18;;;;;;;7.90;1.83;;;8.80;99.90;;;;;;5044669;28;20649;-79
2023/10/15 01:38:45;;;;;;;7.37;1.90;;;8.30;99.90;;;;;;5046718;28;20230;-79
2023/10/15 01:41:16;;;;;;;7.40;2.03;;;8.20;99.90;;;;;;5046389;28;20214;-78
2023/10/15 01:43:46;;;;;;;5.77;1.87;;;8.00;99.90;;;;;;5052232;28;20219;-79
2023/10/15 01:46:23;;;;;;;9.60;2.43;;;8.00;99.90;;;;;;5043419;28;20211;-79
2023/10/15 01:48:50;;;;;;;9.83;2.37;;;8.00;99.90;;;;;;5049061;28;20318;-79
2023/10/15 01:51:17;;;;;;;9.50;2.13;;;7.90;99.90;;;;;;5043762;28;20269;-79
2023/10/15 01:53:45;;;;;;;7.20;1.83;;;7.90;99.90;;;;;;5047194;28;20219;-79
2023/10/15 01:56:19;;;;;;;12.43;2.63;;;7.90;99.90;;;;;;5049634;28;20203;-79
2023/10/15 01:58:47;;;;;;;7.37;2.13;;;7.80;99.90;;;;;;5054074;28;20226;-79
2023/10/15 02:01:20;;;;;;;7.77;2.47;;;7.80;99.90;;;;;;5054784;28;20715;-78
2023/10/15 02:03:48;;;;;;;10.67;2.53;;;7.80;99.90;;;;;;5046481;28;20232;-79
2023/10/15 02:06:19;;;;;;;11.40;2.37;;;7.80;99.90;;;;;;5043369;28;20643;-78
2023/10/15 02:08:46;;;;;;;8.73;2.67;;;7.70;99.90;;;;;;5051863;28;20697;-79
2023/10/15 02:11:21;;;;;;;5.90;1.93;;;7.70;99.90;;;;;;5051432;28;20199;-79
2023/10/15 02:13:48;;;;;;;9.47;2.30;;;7.80;99.90;;;;;;5049403;28;20230;-79
2023/10/15 02:16:18;;;;;;;9.03;2.70;;;7.70;99.90;;;;;;5043452;28;20598;-78
2023/10/15 02:18:51;;;;;;;11.50;2.93;;;7.80;99.90;;;;;;5049394;28;20227;-79
2023/10/15 02:21:19;;;;;;;11.73;2.13;;;7.80;99.90;;;;;;5052228;28;20221;-79
2023/10/15 02:23:52;;;;;;;9.47;2.00;;;8.00;99.90;;;;;;5046310;28;20268;-79
2023/10/15 02:26:30;;;;;;;10.93;2.20;;;7.80;99.90;;;;;;5046798;28;20208;-78
2023/10/15 02:29:06;;;;;;;7.77;2.27;;;7.80;99.90;;;;;;5047632;28;20600;-79
2023/10/15 02:31:41;;;;;;;7.80;2.20;;;8.00;99.90;;;;;;5046008;28;20211;-79
2023/10/15 02:34:14;;;;;;;9.53;2.20;;;7.90;99.90;;;;;;5038008;28;20265;-78
2023/10/15 02:36:41;;;;;;;8.47;1.83;;;8.00;99.90;;;;;;5044478;28;20239;-79
2023/10/15 02:39:08;;;;;;;7.43;1.87;;;8.00;99.90;;;;;;5045676;28;20779;-79
2023/10/15 02:41:40;;;;;;;11.53;2.53;;;8.00;99.90;;;;;;5046329;28;20740;-79
2023/10/15 02:44:12;;;;;;;7.33;2.13;;;8.10;99.90;;;;;;5054865;28;20273;-78
2023/10/15 02:46:47;;;;;;;7.93;2.53;;;8.00;99.90;;;;;;5040744;28;20207;-79
2023/10/15 02:49:15;;;;;;;9.30;2.20;;;8.00;99.90;;;;;;5053080;28;20658;-79
2023/10/15 02:51:42;;;;;;;7.73;2.20;;;8.00;99.90;;;;;;5047611;28;20218;-79
2023/10/15 02:54:18;;;;;;;10.23;2.30;;;8.20;99.90;;;;;;5045392;28;20683;-79
2023/10/15 02:56:46;;;;;;;12.73;2.73;;;8.00;99.90;;;;;;5042682;28;20214;-78
2023/10/15 02:59:15;;;;;;;10.20;2.53;;;8.00;99.90;;;;;;5045530;28;20220;-79
2023/10/15 03:01:45;;;;;;;12.57;2.47;;;7.90;99.90;;;;;;5041393;28;20654;-78
2023/10/15 03:04:17;;;;;;;8.33;2.13;;;8.10;99.90;;;;;;5042336;28;20590;-78
2023/10/15 03:06:48;;;;;;;10.20;1.90;;;8.00;99.90;;;;;;5037206;28;20651;-78
2023/10/15 03:09:18;;;;;;;12.00;2.70;;;7.90;99.90;;;;;;5041720;28;20270;-78
2023/10/15 03:11:50;;;;;;;10.17;2.63;;;7.90;99.90;;;;;;5046971;28;20234;-79
2023/10/15 03:14:16;;;;;;;7.37;2.17;;;8.00;99.90;;;;;;5048358;28;20214;-79
2023/10/15 03:16:44;;;;;;;11.33;2.47;;;7.90;99.90;;;;;;5045618;28;20214;-78
2023/10/15 03:19:17;;;;;;;4.83;1.53;;;8.00;99.90;;;;;;5045244;28;20231;-79
2023/10/15 03:21:44;;;;;;;10.90;1.80;;;7.90;99.90;;;;;;5056575;28;20229;-79
2023/10/15 03:24:14;;;;;;;6.93;2.23;;;8.00;99.90;;;;;;5057153;28;20227;-79
2023/10/15 03:26:47;;;;;;;6.83;1.43;;;8.00;99.90;;;;;;5053618;28;20589;-78
2023/10/15 03:29:15;;;;;;;11.33;2.53;;;8.00;99.90;;;;;;5047651;28;20226;-78
2023/10/15 03:31:46;;;;;;;11.73;2.60;;;8.10;99.90;;;;;;5051391;28;20203;-79
2023/10/15 03:34:21;;;;;;;6.67;1.67;;;8.10;99.90;;;;;;5053871;28;20207;-79
2023/10/15 03:36:50;;;;;;;5.60;1.63;;;8.20;99.90;;;;;;5050165;28;20679;-79
2023/10/15 03:39:24;;;;;;;7.00;1.70;;;8.10;99.90;;;;;;5044374;28;20230;-79
2023/10/15 03:42:09;;;;;;;9.17;1.80;;;8.10;99.90;;;;;;5047670;28;20206;-78
2023/10/15 03:44:37;;;;;;;6.90;2.27;;;8.10;99.90;;;;;;5039875;28;20767;-78
2023/10/15 03:47:05;;;;;;;6.27;2.30;;;8.20;99.90;;;;;;5040487;28;20310;-78
2023/10/15 03:49:32;;;;;;;5.90;1.43;;;8.30;99.90;;;;;;5055078;28;20248;-79
2023/10/15 03:52:06;;;;;;;5.27;1.80;;;8.30;99.90;;;;;;5052744;28;20234;-78
2023/10/15 03:54:33;;;;;;;8.80;2.13;;;8.30;99.90;;;;;;5052885;28;20250;-77
2023/10/15 03:57:01;;;;;;;6.90;1.67;;;8.30;99.90;;;;;;5045129;28;20195;-78
2023/10/15 03:59:28;;;;;;;6.53;1.77;;;8.30;99.90;;;;;;5051833;28;20226;-78
2023/10/15 04:02:09;;;;;;;5.60;1.60;;;8.30;99.90;;;;;;5050069;28;20203;-78
2023/10/15 04:04:36;;;;;;;8.97;1.37;;;8.30;99.90;;;;;;5042991;28;20210;-78
2023/10/15 04:07:12;;;;;;;1.70;0.90;;;8.30;99.90;;;;;;5050474;28;20230;-78
2023/10/15 04:09:39;;;;;;;6.60;1.30;;;8.30;99.90;;;;;;5046472;28;20234;-79
2023/10/15 04:12:06;;;;;;;2.17;0.97;;;8.30;99.90;;;;;;5040783;28;20238;-80
2023/10/15 04:14:34;;;;;;;6.73;2.07;;;8.30;99.90;;;;;;5048999;28;20202;-78
2023/10/15 04:17:06;;;;;;;8.13;1.50;;;8.20;99.90;;;;;;5054955;28;20646;-78
2023/10/15 04:19:35;;;;;;;3.63;1.10;;;8.20;99.90;;;;;;5054802;28;20257;-79
2023/10/15 04:22:13;;;;;;;4.53;1.40;;;8.10;99.90;;;;;;5050453;28;20291;-78
2023/10/15 04:24:40;;;;;;;5.30;1.57;;;8.10;99.90;;;;;;5051014;28;20218;-78
2023/10/15 04:27:14;;;;;;;9.30;1.97;;;8.10;99.90;;;;;;5054765;28;20233;-79
2023/10/15 04:29:48;;;;;;;6.63;1.67;;;8.10;99.90;;;;;;5049361;28;20260;-77
2023/10/15 04:32:28;;;;;;;4.47;1.17;;;8.10;99.90;;;;;;5046123;28;20207;-78
2023/10/15 04:35:01;;;;;;;4.07;0.97;;;8.10;99.90;;;;;;5046512;28;20731;-79
2023/10/15 04:37:29;;;;;;;4.17;1.23;;;8.10;99.90;;;;;;5049366;28;20233;-78
2023/10/15 04:39:58;;;;;;;1.83;1.20;;;8.10;99.90;;;;;;5050710;28;20276;-78
2023/10/15 04:42:29;;;;;;;3.30;1.53;;;8.50;99.90;;;;;;5051379;28;20199;-79
2023/10/15 04:44:57;;;;;;;2.83;1.17;;;8.10;99.90;;;;;;5050486;28;20238;-79
2023/10/15 04:47:28;;;;;;;3.73;1.27;;;8.00;99.90;;;;;;5054091;28;20222;-78
2023/10/15 04:49:57;;;;;;;5.23;1.23;;;8.10;99.90;;;;;;5049994;28;20226;-78
2023/10/15 04:52:25;;;;;;;6.83;1.27;;;8.00;99.90;;;;;;5053174;28;20206;-79
2023/10/15 04:54:55;;;;;;;3.23;1.27;;;8.00;99.90;;;;;;5047024;28;20196;-78
2023/10/15 04:57:25;;;;;;;3.77;1.00;;;8.10;99.90;;;;;;5046865;28;20200;-78
2023/10/15 04:59:52;;;;;;;4.67;1.47;;;8.20;99.90;;;;;;5050255;28;20691;-78
2023/10/15 05:02:21;;;;;;;2.30;1.00;;;8.00;99.90;;;;;;5053472;28;20721;-78
2023/10/15 05:04:49;;;;;;;1.33;0.80;;;8.00;99.90;;;;;;5050691;28;20223;-79
2023/10/15 05:07:16;;;;;;;4.47;1.27;;;8.00;99.90;;;;;;5046374;28;20626;-79
2023/10/15 05:09:44;;;;;;;3.43;1.07;;;8.00;99.90;;;;;;5045590;28;20231;-79
2023/10/15 05:12:12;;;;;;;4.73;1.13;;;8.00;99.90;;;;;;5051607;28;20209;-78
2023/10/15 05:14:39;;;;;;;2.13;0.60;;;7.90;99.90;;;;;;5040792;28;20281;-79
2023/10/15 05:17:06;;;;;;;3.50;1.20;;;7.90;99.90;;;;;;5039806;28;20203;-79
2023/10/15 05:19:32;;;;;;;1.10;0.73;;;7.80;99.90;;;;;;5044306;28;20219;-78
2023/10/15 05:22:01;;;;;;;2.90;0.87;;;7.80;99.90;;;;;;5042753;28;20291;-78
2023/10/15 05:24:30;;;;;;;1.73;0.63;;;7.80;99.90;;;;;;5047016;28;20226;-78
2023/10/15 05:26:58;;;;;;;2.43;0.80;;;7.70;99.90;;;;;;5052936;28;20735;-80
2023/10/15 05:29:25;;;;;;;3.47;0.97;;;7.70;99.90;;;;;;5050730;28;20653;-77
2023/10/15 05:31:53;;;;;;;4.80;1.23;;;7.70;99.90;;;;;;5054465;28;20290;-79
2023/10/15 05:34:20;;;;;;;4.53;1.40;;;7.70;99.90;;;;;;5053139;28;20195;-78
2023/10/15 05:36:48;;;;;;;5.07;1.13;;;7.70;99.90;;;;;;5052705;28;20210;-78
2023/10/15 05:39:17;;;;;;;3.47;1.27;;;7.60;99.90;;;;;;5050592;28;20215;-79
2023/10/15 05:41:46;;;;;;;2.90;1.30;;;7.70;99.90;;;;;;5050704;28;20207;-78
2023/10/15 05:44:13;;;;;;;4.60;2.00;;;7.60;99.90;;;;;;5050052;28;20882;-79
2023/10/15 05:46:39;;;;;;;3.97;1.77;;;7.60;99.90;;;;;;5049669;28;20242;-79
2023/10/15 05:49:06;;;;;;;3.80;1.43;;;7.60;99.90;;;;;;5047588;28;20234;-79
2023/10/15 05:51:33;;;;;;;3.63;1.40;;;7.60;99.90;;;;;;5047163;28;20207;-79
2023/10/15 05:54:02;;;;;;;3.93;1.30;;;7.60;99.90;;;;;;5043349;28;20258;-80
2023/10/15 05:56:30;;;;;;;2.40;0.80;;;7.50;99.90;;;;;;5048801;28;20199;-79
2023/10/15 05:58:57;;;;;;;2.77;1.17;;;7.50;99.90;;;;;;5047629;28;20231;-79
2023/10/15 06:01:24;;;;;;;3.63;1.17;;;7.50;99.90;;;;;;5048943;28;20804;-79
2023/10/15 06:03:51;;;;;;;1.77;0.90;;;7.40;99.90;;;;;;5050623;28;20199;-79
2023/10/15 06:06:19;;;;;;;3.90;1.20;;;7.40;99.90;;;;;;5048485;28;20219;-80
2023/10/15 06:08:45;;;;;;;2.27;0.80;;;7.30;99.90;;;;;;5048736;28;20223;-79
2023/10/15 06:11:13;;;;;;;1.47;0.70;;;7.40;99.90;;;;;;5052207;28;20224;-79
2023/10/15 06:13:41;;;;;;;2.40;0.70;;;7.30;99.90;;;;;;5050407;28;20793;-78
2023/10/15 06:16:08;;;;;;;3.23;1.13;;;7.40;99.90;;;;;;5046882;28;20195;-79
2023/10/15 06:18:35;;;;;;;2.63;0.60;;;7.40;99.90;;;;;;5040077;28;20225;-78
2023/10/15 06:21:02;;;;;;;2.57;0.83;;;7.30;99.90;;;;;;5046503;28;20679;-79
2023/10/15 06:23:29;;;;;;;2.67;0.70;;;7.40;99.90;;;;;;5051352;28;20203;-79
2023/10/15 06:25:56;;;;;;;5.03;1.00;;;7.50;99.90;;;;;;5047132;28;20250;-79
2023/10/15 06:28:25;;;;;;;2.73;0.80;;;7.50;99.90;;;;;;5044488;28;20253;-79
2023/10/15 06:30:55;;;;;;;2.07;0.77;;;7.40;99.90;;;;;;5052442;28;20560;-79
2023/10/15 06:33:22;;;;;;;2.37;1.20;;;7.40;99.90;;;;;;5050217;28;20591;-80
2023/10/15 06:35:51;;;;;;;2.20;0.80;;;7.50;99.90;;;;;;5049115;28;20207;-79
2023/10/15 06:38:18;;;;;;;3.27;0.80;;;7.50;99.90;;;;;;5040971;28;20258;-80
2023/10/15 06:40:45;;;;;;;4.80;1.00;;;7.60;99.90;;;;;;5048304;28;20750;-80
2023/10/15 06:43:12;;;;;;;1.90;0.80;;;7.50;99.90;;;;;;5043239;28;20304;-79
2023/10/15 06:45:39;;;;;;;2.67;0.80;;;7.60;99.90;;;;;;5052802;28;20215;-79
2023/10/15 06:48:08;;;;;;;1.80;1.00;;;7.60;99.90;;;;;;5050535;28;20260;-80
2023/10/15 06:50:36;;;;;;;3.47;1.03;;;7.70;99.90;;;;;;5053288;28;20286;-80
2023/10/15 06:53:05;;;;;;;4.10;0.93;;;7.80;99.90;;;;;;5049865;28;20195;-79
2023/10/15 06:55:32;;;;;;;1.83;0.50;;;7.90;99.90;;;;;;5057425;28;20278;-79
2023/10/15 06:57:59;;;;;;;2.43;0.90;;;8.00;99.90;;;;;;5046227;28;20203;-79
2023/10/15 07:00:26;;;;;;;2.27;0.77;;;8.10;99.90;;;;;;5054179;28;20219;-80
2023/10/15 07:02:54;;;;;;;2.10;0.60;;;8.10;99.90;;;;;;5050301;28;20242;-79
2023/10/15 07:05:25;;;;;;;1.30;0.60;;;8.20;99.90;;;;;;5054942;28;20902;-79
2023/10/15 07:07:56;;;;;;;1.97;0.57;;;8.20;99.90;;;;;;5057742;28;20203;-80
2023/10/15 07:10:23;;;;;;;1.67;0.70;;;8.20;99.90;;;;;;5049970;28;20219;-79
2023/10/15 07:12:51;;;;;;;2.27;0.90;;;8.00;99.90;;;;;;5051400;28;20653;-80
2023/10/15 07:15:20;;;;;;;2.77;0.83;;;8.00;99.90;;;;;;5054264;28;20235;-80
2023/10/15 07:17:49;;;;;;;1.93;0.70;;;8.00;99.90;;;;;;5048196;28;20210;-80
2023/10/15 07:20:18;;;;;;;2.70;0.63;;;7.90;99.90;;;;;;5052235;28;20226;-77
2023/10/15 07:22:48;;;;;;;0.63;0.40;;;7.90;99.90;;;;;;5055489;28;20685;-78
2023/10/15 07:25:16;;;;;;;1.40;0.53;;;7.90;99.90;;;;;;5047457;28;20215;-79
2023/10/15 07:27:45;;;;;;;1.97;0.70;;;8.00;99.90;;;;;;5053840;28;20195;-79
2023/10/15 07:30:13;;;;;;;4.70;0.67;;;8.10;99.90;;;;;;5054772;28;20218;-79
2023/10/15 07:32:41;;;;;;;1.93;1.20;;;8.30;99.90;;;;;;5050559;28;20203;-77
2023/10/15 07:35:11;;;;;;;1.57;0.50;;;8.50;99.90;;;;;;5054134;28;20214;-78
2023/10/15 07:37:40;;;;;;;2.30;0.90;;;8.60;99.90;;;;;;5050819;28;20279;-79
2023/10/15 07:40:16;;;;;;;2.20;0.80;;;8.80;99.90;;;;;;5053434;28;20223;-79
2023/10/15 07:42:43;;;;;;;1.23;0.70;;;8.80;99.90;;;;;;5053146;28;20234;-79
2023/10/15 07:45:11;;;;;;;1.00;0.67;;;8.80;99.90;;;;;;5050878;28;20713;-79
2023/10/15 07:47:38;;;;;;;2.57;1.10;;;8.70;99.90;;;;;;5047427;28;20662;-79
2023/10/15 07:50:07;;;;;;;2.00;1.20;;;8.70;99.90;;;;;;5048993;28;20300;-79
2023/10/15 07:52:34;;;;;;;1.50;1.07;;;8.60;99.90;;;;;;5045270;28;20210;-79
2023/10/15 07:55:00;;;;;;;3.03;1.03;;;8.60;99.90;;;;;;5044455;28;20714;-79
2023/10/15 07:57:28;;;;;;;1.73;1.00;;;8.70;99.90;;;;;;5049898;28;20210;-79
2023/10/15 07:59:58;;;;;;;2.50;1.20;;;8.80;99.90;;;;;;5046058;28;20237;-79
2023/10/15 08:02:25;;;;;;;3.20;1.20;;;8.80;99.90;;;;;;5050160;28;20203;-80
2023/10/15 08:04:54;;;;;;;3.60;0.90;;;8.70;99.90;;;;;;5057139;28;20242;-79
2023/10/15 08:07:21;;;;;;;3.90;1.03;;;8.90;99.90;;;;;;5045220;28;20214;-79
2023/10/15 08:09:48;;;;;;;1.90;0.93;;;9.00;99.90;;;;;;5049460;28;20233;-79
2023/10/15 08:12:16;;;;;;;2.23;0.93;;;8.90;99.90;;;;;;5053241;28;20239;-79
2023/10/15 08:14:44;;;;;;;2.70;1.10;;;9.70;99.90;;;;;;5052169;28;20298;-79
2023/10/15 08:17:11;;;;;;;3.20;1.00;;;9.50;99.90;;;;;;5049908;28;20195;-78
2023/10/15 08:19:38;;;;;;;2.83;1.13;;;9.30;99.90;;;;;;5047453;28;20227;-79
2023/10/15 08:22:05;;;;;;;3.07;1.20;;;9.20;99.90;;;;;;5051613;28;20217;-78
2023/10/15 08:24:31;;;;;;;2.10;1.20;;;9.30;99.90;;;;;;5049330;28;20208;-78
2023/10/15 08:26:59;;;;;;;2.07;1.10;;;9.40;99.90;;;;;;5052993;28;20689;-78
2023/10/15 08:29:26;;;;;;;3.80;1.10;;;9.50;99.90;;;;;;5045759;28;20691;-80
2023/10/15 08:31:54;;;;;;;3.50;1.10;;;9.60;99.90;;;;;;5055232;28;20211;-80
2023/10/15 08:34:23;;;;;;;3.43;1.17;;;9.70;99.90;;;;;;5049279;28;20210;-78
2023/10/15 08:36:49;;;;;;;3.10;1.20;;;9.50;99.90;;;;;;5043473;28;20206;-80
2023/10/15 08:39:16;;;;;;;1.40;0.90;;;9.50;99.90;;;;;;5054691;28;20723;-79
2023/10/15 08:41:45;;;;;;;2.67;0.83;;;9.60;99.90;;;;;;5055457;28;20226;-79
2023/10/15 08:44:18;;;;;;;1.47;0.63;;;9.50;99.90;;;;;;5049633;28;20206;-81
2023/10/15 08:46:47;;;;;;;2.50;1.23;;;9.70;99.90;;;;;;5048017;28;20227;-80
2023/10/15 08:49:16;;;;;;;2.47;1.23;;;9.70;99.90;;;;;;5048404;28;20227;-80
2023/10/15 08:51:44;;;;;;;2.53;1.27;;;9.60;99.90;;;;;;5048774;28;20658;-80
2023/10/15 08:54:14;;;;;;;2.90;1.60;;;9.70;99.90;;;;;;5048138;28;20222;-80
2023/10/15 08:56:43;;;;;;;3.50;1.57;;;9.90;99.90;;;;;;5044795;28;20222;-81
2023/10/15 08:59:11;;;;;;;2.63;1.67;;;9.80;99.90;;;;;;5044787;28;20227;-80
2023/10/15 09:01:42;;;;;;;3.17;1.27;;;9.90;99.90;;;;;;5051341;28;20717;-78
2023/10/15 09:04:10;;;;;;;3.43;1.60;;;9.80;99.90;;;;;;5046807;28;20204;-79
2023/10/15 09:06:38;;;;;;;5.20;1.53;;;9.80;99.90;;;;;;5052071;28;20245;-78
2023/10/15 09:09:05;;;;;;;2.67;1.60;;;9.70;99.90;;;;;;5052830;28;20223;-80
2023/10/15 09:11:33;;;;;;;3.93;1.00;;;9.80;99.90;;;;;;5053253;28;20195;-78
2023/10/15 09:14:02;;;;;;;4.13;1.30;;;9.80;99.90;;;;;;5051334;28;21572;-78
2023/10/15 09:16:30;;;;;;;4.47;2.37;;;9.70;99.90;;;;;;5051292;28;20246;-80
2023/10/15 09:19:03;;;;;;;1.23;0.90;;;9.70;99.90;;;;;;5048607;28;20229;-80
2023/10/15 09:21:31;;;;;;;2.80;1.10;;;9.60;99.90;;;;;;5044360;28;20260;-79
2023/10/15 09:24:01;;;;;;;1.67;1.07;;;9.70;99.90;;;;;;5040806;28;20207;-79
2023/10/15 09:26:31;;;;;;;2.57;0.93;;;9.90;99.90;;;;;;5043261;28;20219;-78
2023/10/15 09:28:58;;;;;;;3.50;0.83;;;9.90;99.90;;;;;;5049732;28;20305;-79
2023/10/15 09:31:25;;;;;;;4.30;0.93;;;9.90;99.90;;;;;;5043253;28;20201;-79
2023/10/15 09:33:52;;;;;;;3.40;1.40;;;10.00;99.90;;;;;;5048592;28;20597;-79
2023/10/15 09:36:23;;;;;;;4.47;1.60;;;10.20;99.90;;;;;;5049973;28;20221;-81
2023/10/15 09:38:54;;;;;;;2.20;1.07;;;10.40;99.90;;;;;;5050908;28;20220;-79
2023/10/15 09:41:25;;;;;;;2.43;0.80;;;10.60;99.90;;;;;;5051057;28;20214;-81
2023/10/15 09:43:52;;;;;;;3.20;1.13;;;10.60;99.90;;;;;;5051316;28;20202;-78
2023/10/15 09:46:20;;;;;;;4.43;1.50;;;10.40;99.90;;;;;;5044353;28;20712;-80
2023/10/15 09:48:47;;;;;;;4.30;1.20;;;10.40;99.90;;;;;;5042280;28;20226;-79
2023/10/15 09:51:14;;;;;;;4.60;1.77;;;10.50;99.90;;;;;;5051794;28;20218;-79
2023/10/15 09:53:43;;;;;;;6.10;1.87;;;10.60;99.90;;;;;;5041241;28;20204;-79
2023/10/15 09:56:12;;;;;;;8.90;2.90;;;10.50;99.90;;;;;;5050740;28;20266;-79
2023/10/15 09:58:40;;;;;;;3.10;1.73;;;10.40;99.90;;;;;;5046264;28;20231;-79
2023/10/15 10:01:16;;;;;;;2.23;1.20;;;10.30;99.90;;;;;;5041263;28;20210;-80
2023/10/15 10:04:15;;;;;;;7.10;2.00;;;10.30;99.90;;;;;;5045983;28;20662;-80
2023/10/15 10:07:12;;;;;;;2.33;0.73;;;10.50;99.90;;;;;;5048826;28;20255;-80
2023/10/15 10:10:04;;;;;;;2.33;0.90;;;10.30;99.90;;;;;;5052236;28;20241;-79
2023/10/15 10:12:46;;;;;;;5.07;1.30;;;10.10;99.90;;;;;;5052366;28;20210;-79
2023/10/15 10:15:28;;;;;;;2.77;0.70;;;10.00;99.90;;;;;;5043526;28;20211;-79
2023/10/15 10:17:55;;;;;;;3.33;0.90;;;10.00;99.90;;;;;;5037966;28;20200;-79
2023/10/15 10:20:31;;;;;;;3.90;1.50;;;9.90;99.90;;;;;;5042905;28;20223;-80
2023/10/15 10:23:00;;;;;;;1.70;0.77;;;10.60;99.90;;;;;;5049518;28;20207;-78
2023/10/15 10:25:30;;;;;;;2.57;1.00;;;11.00;99.90;;;;;;5046822;28;20649;-78
2023/10/15 10:28:07;;;;;;;0.80;0.60;;;10.80;99.90;;;;;;5051320;28;20199;-78
2023/10/15 10:30:37;;;;;;;0.97;0.70;;;10.90;99.90;;;;;;5039182;28;20214;-79
2023/10/15 10:33:05;;;;;;;1.43;0.77;;;11.00;99.90;;;;;;5051309;28;20293;-80
2023/10/15 10:35:43;;;;;;;1.33;0.60;;;11.30;99.90;;;;;;5051373;28;20817;-79
2023/10/15 10:38:17;;;;;;;3.70;0.90;;;11.50;99.90;;;;;;5050943;28;20210;-79
2023/10/15 10:40:48;;;;;;;3.10;0.60;;;11.90;99.90;;;;;;5046952;28;20214;-78
2023/10/15 10:43:20;;;;;;;2.37;1.00;;;12.30;99.90;;;;;;5046598;28;20298;-80
2023/10/15 10:45:55;;;;;;;2.77;0.80;;;11.90;99.90;;;;;;5054058;28;20207;-78
2023/10/15 10:48:27;;;;;;;1.63;0.90;;;11.80;99.90;;;;;;5050459;28;20778;-79
2023/10/15 10:51:22;;;;;;;1.90;0.40;;;11.70;99.90;;;;;;5054337;28;20222;-79
2023/10/15 10:54:27;;;;;;;2.77;0.73;;;11.50;99.90;;;;;;5050252;28;20709;-80
2023/10/15 10:57:00;;;;;;;3.60;0.60;;;11.60;99.90;;;;;;5048012;28;20200;-79
2023/10/15 10:59:28;;;;;;;2.50;0.80;;;12.00;99.90;;;;;;5052268;28;20246;-78
2023/10/15 11:01:58;;;;;;;1.80;0.57;;;12.10;99.90;;;;;;5053620;28;20214;-78
2023/10/15 11:04:26;;;;;;;3.07;0.60;;;11.50;99.90;;;;;;5049596;28;20210;-78
2023/10/15 11:06:52;;;;;;;5.23;0.70;;;10.90;99.90;;;;;;5050185;28;20227;-80
2023/10/15 11:09:20;;;;;;;4.17;0.80;;;11.10;99.90;;;;;;5055208;28;20222;-79
2023/10/15 11:11:48;;;;;;;4.33;0.93;;;11.20;99.90;;;;;;5046982;28;20670;-78
2023/10/15 11:14:15;;;;;;;2.50;0.67;;;11.50;99.90;;;;;;5044055;28;20575;-79
2023/10/15 11:16:44;;;;;;;2.07;0.70;;;11.80;99.90;;;;;;5046533;28;20572;-79
2023/10/15 11:19:19;;;;;;;4.07;0.70;;;12.10;99.90;;;;;;5052750;28;20226;-78
2023/10/15 11:21:46;;;;;;;3.30;0.77;;;12.00;99.90;;;;;;5044504;28;20207;-78
2023/10/15 11:24:14;;;;;;;3.33;0.70;;;12.20;99.90;;;;;;5046932;28;20669;-78
2023/10/15 11:26:42;;;;;;;3.00;0.70;;;12.50;99.90;;;;;;5045745;28;20218;-79
2023/10/15 11:29:10;;;;;;;1.00;0.60;;;12.50;99.90;;;;;;5045613;28;20257;-79
2023/10/15 11:31:38;;;;;;;3.27;0.83;;;12.20;99.90;;;;;;5050092;28;20207;-79
2023/10/15 11:34:06;;;;;;;1.73;0.37;;;12.30;99.90;;;;;;5043091;28;20322;-79
2023/10/15 11:36:37;;;;;;;1.90;0.60;;;12.80;99.90;;;;;;5053224;28;20207;-79
2023/10/15 11:39:08;;;;;;;1.50;0.50;;;12.80;99.90;;;;;;5051896;28;20226;-78
2023/10/15 11:41:38;;;;;;;3.90;0.70;;;12.40;99.90;;;;;;5047492;28;20204;-79
2023/10/15 11:44:06;;;;;;;2.03;0.57;;;12.50;99.90;;;;;;5050625;28;20207;-79
2023/10/15 11:46:36;;;;;;;2.73;0.50;;;12.90;99.90;;;;;;5044553;28;20693;-80
2023/10/15 11:49:03;;;;;;;1.57;0.60;;;12.60;99.90;;;;;;5046314;28;20307;-78
2023/10/15 11:51:31;;;;;;;2.63;0.63;;;12.10;99.90;;;;;;5042874;28;20302;-79
2023/10/15 11:54:01;;;;;;;2.73;0.67;;;12.00;99.90;;;;;;5048564;28;20298;-78
2023/10/15 11:56:29;;;;;;;1.17;0.70;;;12.00;99.90;;;;;;5048547;28;20261;-78
2023/10/15 11:58:57;;;;;;;2.30;0.80;;;11.70;99.90;;;;;;5048962;28;20228;-79
2023/10/15 12:01:24;;;;;;;2.50;0.50;;;11.60;99.90;;;;;;5046529;28;20265;-78
2023/10/15 12:03:51;;;;;;;2.10;0.57;;;11.70;99.90;;;;;;5055000;28;20195;-79
2023/10/15 12:06:18;;;;;;;6.30;2.23;;;12.30;99.90;;;;;;5054962;28;20230;-80
2023/10/15 12:08:45;;;;;;;3.43;1.20;;;12.70;99.90;;;;;;5046293;28;20223;-79
2023/10/15 12:11:15;;;;;;;3.27;0.90;;;12.80;99.90;;;;;;5048325;28;20684;-80
2023/10/15 12:13:44;;;;;;;5.60;1.80;;;12.00;99.90;;;;;;5045910;28;20215;-80
2023/10/15 12:16:11;;;;;;;3.17;2.27;;;11.40;99.90;;;;;;5045167;28;20210;-80
2023/10/15 12:18:39;;;;;;;3.70;1.37;;;11.10;99.90;;;;;;5046497;28;20280;-80
2023/10/15 12:21:06;;;;;;;2.00;0.90;;;11.50;99.90;;;;;;5052650;28;20207;-79
2023/10/15 12:23:33;;;;;;;0.83;0.70;;;12.30;99.90;;;;;;5050316;28;20724;-79
2023/10/15 12:26:00;;;;;;;2.03;1.00;;;12.70;99.90;;;;;;5052897;28;20298;-80
2023/10/15 12:28:29;;;;;;;2.83;1.00;;;13.90;99.90;;;;;;5053716;28;20252;-79
2023/10/15 12:30:57;;;;;;;2.57;1.70;;;14.50;99.90;;;;;;5050043;28;20211;-78
2023/10/15 12:33:23;;;;;;;3.00;1.20;;;14.30;68.70;;;;;;5053017;28;20211;-80
2023/10/15 12:35:51;;;;;;;4.70;0.90;;;15.30;67.70;;;;;;5050324;28;20237;-78
2023/10/15 12:38:26;;;;;;;2.17;0.83;;;14.60;26.30;;;;;;5052082;28;20203;-78
2023/10/15 12:40:55;;;;;;;2.17;1.17;;;14.60;4.50;;;;;;5047156;28;20213;-79
2023/10/15 12:43:22;;;;;;;2.80;0.83;;;14.60;8.80;;;;;;5053393;28;20214;-79
2023/10/15 12:45:52;;;;;;;2.50;1.30;;;13.80;1.00;;;;;;5053114;28;20210;-79
2023/10/15 12:48:19;;;;;;;3.73;1.53;;;13.50;19.80;;;;;;5053813;28;20692;-79
2023/10/15 12:50:47;;;;;;;4.50;1.87;;;13.20;4.90;;;;;;5053305;28;20661;-79
2023/10/15 12:53:15;;;;;;;7.00;3.47;;;12.50;1.00;;;;;;5053616;28;20211;-81
2023/10/15 12:55:42;;;;;;;3.53;2.07;;;12.80;4.10;;;;;;5051538;28;20210;-79
2023/10/15 12:58:10;;;;;;;2.23;1.10;;;12.80;21.30;;;;;;5054062;28;20245;-79
2023/10/15 13:00:39;;;;;;;3.20;1.40;;;12.20;5.80;;;;;;5050030;28;20282;-79
2023/10/15 13:03:07;;;;;;;3.07;2.17;;;11.70;1.00;;;;;;5052062;28;20688;-79
2023/10/15 13:05:34;;;;;;;2.20;1.30;;;11.60;1.00;;;;;;5049526;28;20195;-80